Terminal Aerodrome Forecast
Issued by NWS

Home | Current Version | Previous Version | Text Only | Print | Product List | Glossary On
Versions: 1 2 3 4 5 6 7 8 9 10 11 12 13 14 15 16 17 18 19 20 21 22 23 24 25 26 27 28 29 30 31 32 33 34 35 36 37 38 39 40 41 42 43 44 45 46 47 48 49 50
744
FTUS41 KPBZ 170938 AAA
TAFFKL
TAF AMD
KFKL 170938Z 1710/1806 21004KT P6SM VCSH BKN060
      TEMPO 1710/1712 4SM -TSRA OVC040CB
     FM171400 19004KT P6SM -SHRA OVC040
     FM171600 19004KT 6SM -SHRA VCTS OVC025CB
     FM180100 34004KT 6SM BR VCSH BKN020
     FM180400 35003KT 4SM BR BKN012=

USA.gov is the U.S. government's official web portal to all federal, state and local government web resources and services.